createdAt,value
2022-12-13T00:14:28.469Z,100815.63
2022-12-13T00:19:25.441Z,100811.41
2022-12-13T00:24:22.454Z,100747.22
2022-12-13T00:29:19.666Z,100761.84
2022-12-13T00:34:18.325Z,100804.88
2022-12-13T00:39:15.980Z,100759.59
2022-12-13T00:44:14.479Z,100804.50
2022-12-13T00:49:12.462Z,100810.88
2022-12-13T00:54:10.483Z,100789.03
2022-12-13T00:59:08.166Z,100797.06
2022-12-13T01:04:06.301Z,100798.09
2022-12-13T01:09:04.329Z,100816.31
2022-12-13T01:14:01.977Z,100813.88
2022-12-13T01:18:59.048Z,100796.84
2022-12-13T01:24:01.325Z,100796.81
2022-12-13T01:28:58.805Z,100824.34
2022-12-13T01:33:56.825Z,100792.69
2022-12-13T01:38:53.743Z,100795.28
2022-12-13T01:44:00.421Z,100808.50
2022-12-13T01:49:06.079Z,100826.59
2022-12-13T01:54:23.528Z,100732.72
2022-12-13T01:59:22.739Z,100797.88
2022-12-13T02:04:29.582Z,100768.06
2022-12-13T02:09:26.848Z,100831.66
2022-12-13T02:14:23.861Z,100735.94
2022-12-13T02:19:58.498Z,100836.22
2022-12-13T02:25:12.766Z,100774.56
2022-12-13T02:30:34.746Z,100823.47
2022-12-13T02:35:40.085Z,100796.97
2022-12-13T02:40:41.985Z,100823.69
2022-12-13T02:45:45.307Z,100810.16
2022-12-13T02:50:43.138Z,100842.03
2022-12-13T02:55:40.312Z,100851.50
2022-12-13T03:00:51.261Z,100810.53
2022-12-13T03:06:23.685Z,100834.66
2022-12-13T03:11:23.625Z,100869.88
2022-12-13T03:16:34.028Z,100871.59
2022-12-13T03:21:43.953Z,100859.72
2022-12-13T03:26:44.492Z,100883.88
2022-12-13T03:31:42.117Z,100883.00
2022-12-13T03:36:39.379Z,100842.88
2022-12-13T03:41:36.380Z,100835.22
2022-12-13T03:46:33.726Z,100887.47
2022-12-13T03:51:31.439Z,100884.28
2022-12-13T03:56:28.526Z,100883.41
2022-12-13T04:01:25.503Z,100887.75
2022-12-13T04:06:25.405Z,100896.31
2022-12-13T04:11:43.514Z,100880.94
2022-12-13T04:16:40.372Z,100899.88
2022-12-13T04:21:37.344Z,100864.84
2022-12-13T04:26:34.827Z,100894.13
2022-12-13T04:31:31.913Z,100901.84
2022-12-13T04:36:31.995Z,100889.06
2022-12-13T04:41:34.996Z,100862.66
2022-12-13T04:46:33.029Z,100913.31
2022-12-13T04:51:31.961Z,100891.00
2022-12-13T04:56:28.907Z,100845.56
2022-12-13T05:01:26.033Z,100858.50
2022-12-13T05:06:26.293Z,100938.47
2022-12-13T05:11:24.936Z,100904.13
2022-12-13T05:16:24.885Z,100948.91
2022-12-13T05:21:21.804Z,100918.97
2022-12-13T05:26:19.694Z,100930.97
2022-12-13T05:31:23.079Z,100948.31
2022-12-13T05:36:24.727Z,100975.97
2022-12-13T05:41:24.873Z,101012.09
2022-12-13T05:46:21.950Z,100982.91
2022-12-13T05:51:18.967Z,100980.34
2022-12-13T05:56:22.644Z,101026.81
2022-12-13T06:01:21.223Z,101037.22
2022-12-13T06:06:18.278Z,100995.94
2022-12-13T06:11:31.043Z,101046.72
2022-12-13T06:16:32.077Z,101029.56
2022-12-13T06:21:43.456Z,101021.06
2022-12-13T06:26:45.094Z,101052.84
2022-12-13T06:31:43.900Z,101050.28
2022-12-13T06:36:42.490Z,101061.44
2022-12-13T06:41:42.328Z,101072.59
2022-12-13T06:46:40.749Z,101087.16
2022-12-13T06:51:38.786Z,101051.00
2022-12-13T06:56:36.543Z,101053.59
2022-12-13T07:01:37.598Z,100992.56
2022-12-13T07:06:35.498Z,101093.94
2022-12-13T07:11:36.646Z,101074.19
2022-12-13T07:16:33.635Z,101117.88
2022-12-13T07:21:31.441Z,101074.91
2022-12-13T07:26:28.329Z,101101.56
2022-12-13T07:31:26.650Z,101122.97
2022-12-13T07:36:23.939Z,101077.38
2022-12-13T07:41:24.098Z,101092.88
2022-12-13T07:46:25.996Z,101068.84
2022-12-13T07:51:32.774Z,101146.22
2022-12-13T07:56:33.164Z,101075.78
2022-12-13T08:01:31.753Z,101165.09
2022-12-13T08:06:28.708Z,101124.72
2022-12-13T08:11:26.738Z,101164.28
2022-12-13T08:16:28.412Z,101148.88
2022-12-13T08:21:52.833Z,101192.69
2022-12-13T08:26:45.499Z,101157.50
2022-12-13T08:31:42.729Z,101160.97
2022-12-13T08:36:40.847Z,101185.09
2022-12-13T08:41:39.427Z,101165.28
2022-12-13T08:46:37.143Z,101160.03
2022-12-13T08:51:35.772Z,101192.59
2022-12-13T08:56:35.581Z,101190.84
2022-12-13T09:01:33.218Z,101170.16
2022-12-13T09:06:31.280Z,101157.31
2022-12-13T09:11:34.565Z,101176.94
2022-12-13T09:16:37.353Z,101124.38
2022-12-13T09:21:36.860Z,101158.66
2022-12-13T09:27:27.179Z,101051.09
2022-12-13T09:32:33.648Z,101119.72
2022-12-13T09:37:34.555Z,101155.75
2022-12-13T09:42:34.595Z,101137.47
2022-12-13T09:47:36.116Z,101141.69
2022-12-13T09:52:39.029Z,101139.81
2022-12-13T09:57:36.667Z,101093.28
2022-12-13T10:02:42.445Z,101122.44
2022-12-13T10:07:40.593Z,101127.41
2022-12-13T10:12:39.118Z,101131.63
2022-12-13T10:17:41.448Z,101069.69
2022-12-13T10:22:39.400Z,101085.00
2022-12-13T10:27:38.596Z,101099.25
2022-12-13T10:32:54.350Z,101073.81
2022-12-13T10:37:58.369Z,101091.09
2022-12-13T10:43:07.498Z,101071.69
2022-12-13T10:48:28.135Z,101057.72
2022-12-13T10:53:32.995Z,101108.22
2022-12-13T10:58:39.049Z,101099.75
2022-12-13T11:03:40.612Z,101040.44
2022-12-13T11:08:39.275Z,101095.47
2022-12-13T11:13:39.156Z,101077.47
2022-12-13T11:18:39.918Z,101090.47
2022-12-13T11:23:43.636Z,101092.41
2022-12-13T11:29:09.429Z,101046.69
2022-12-13T11:34:23.606Z,101016.91
2022-12-13T11:39:29.670Z,101008.88
2022-12-13T11:44:36.035Z,101077.25
2022-12-13T11:49:38.784Z,101029.16
2022-12-13T11:54:51.164Z,101028.44
2022-12-13T11:59:54.867Z,101105.56
2022-12-13T12:05:07.016Z,101072.00
2022-12-13T12:10:24.445Z,100966.50
2022-12-13T12:15:33.625Z,101087.91
2022-12-13T12:21:05.565Z,100986.91
2022-12-13T12:26:26.243Z,100979.34
2022-12-13T12:31:34.301Z,101047.13
2022-12-13T12:37:03.487Z,100978.63
2022-12-13T12:42:23.972Z,101021.66
2022-12-13T12:53:24.816Z,101067.44
2022-12-13T12:58:34.299Z,101100.25
2022-12-13T13:03:36.385Z,101124.47
2022-12-13T13:08:41.054Z,101102.22
2022-12-13T13:13:49.424Z,101099.78
2022-12-13T13:18:51.250Z,101098.59
2022-12-13T13:23:48.688Z,101117.63
2022-12-13T13:28:46.914Z,101078.44
2022-12-13T13:33:47.527Z,101116.44
2022-12-13T13:38:52.249Z,101086.59
2022-12-13T13:43:53.125Z,101057.03
2022-12-13T13:48:59.668Z,101055.59
2022-12-13T13:54:28.669Z,101144.31
2022-12-13T14:00:03.140Z,101156.69
2022-12-13T14:05:42.648Z,101151.69
2022-12-13T14:10:52.164Z,101130.50
2022-12-13T14:16:26.202Z,101153.78
2022-12-13T14:21:33.852Z,101100.88
2022-12-13T14:27:10.919Z,101158.81
2022-12-13T14:32:10.830Z,101184.75
2022-12-13T14:37:29.862Z,101204.00
2022-12-13T14:42:33.247Z,101172.34
2022-12-13T14:47:30.803Z,101180.28
2022-12-13T14:52:35.614Z,101232.19
2022-12-13T14:57:37.334Z,101214.25
2022-12-13T15:02:36.698Z,101228.09
2022-12-13T15:07:38.627Z,101145.78
2022-12-13T15:12:38.150Z,101239.56
2022-12-13T15:18:01.843Z,101200.22
2022-12-13T15:23:40.343Z,101200.38
2022-12-13T15:28:50.810Z,101173.00
2022-12-13T15:33:52.439Z,101288.31
2022-12-13T15:39:18.742Z,101287.47
2022-12-13T15:44:23.296Z,101281.53
2022-12-13T15:49:27.374Z,101241.19
2022-12-13T15:54:28.218Z,101264.41
2022-12-13T15:59:27.785Z,101258.28
2022-12-13T16:04:27.625Z,101226.59
2022-12-13T16:09:28.350Z,101244.63
2022-12-13T16:14:39.514Z,101164.75
2022-12-13T16:19:36.430Z,101224.03
2022-12-13T16:24:36.962Z,101203.41
2022-12-13T16:29:34.095Z,101207.00
2022-12-13T16:34:32.012Z,101256.06
2022-12-13T16:39:29.207Z,101246.59
2022-12-13T16:44:35.238Z,101201.84
2022-12-13T16:49:43.312Z,101251.69
2022-12-13T16:54:42.868Z,101163.19
2022-12-13T16:59:41.373Z,101250.91
2022-12-13T17:04:40.972Z,101178.75
2022-12-13T17:09:38.789Z,101218.34
2022-12-13T17:14:36.493Z,101231.28
2022-12-13T17:19:34.476Z,101245.97
2022-12-13T17:24:31.486Z,101242.56
2022-12-13T17:29:30.586Z,101239.13
2022-12-13T17:34:27.695Z,101221.94
2022-12-13T17:39:25.609Z,101178.16
2022-12-13T17:44:23.998Z,101246.13
2022-12-13T17:49:21.257Z,101243.56
2022-12-13T17:54:18.956Z,101254.78
2022-12-13T17:59:20.146Z,101273.00
2022-12-13T18:04:19.856Z,101254.91
2022-12-13T18:09:16.902Z,101180.09
2022-12-13T18:14:22.922Z,101243.78
2022-12-13T18:19:21.231Z,101240.41
2022-12-13T18:24:18.319Z,101254.19
2022-12-13T18:29:15.804Z,101301.50
2022-12-13T18:34:15.291Z,101243.03
2022-12-13T18:39:13.337Z,101297.34
2022-12-13T18:44:14.125Z,101286.16
2022-12-13T18:49:11.316Z,101327.44
2022-12-13T18:54:15.466Z,101336.09
2022-12-13T18:59:14.649Z,101239.69
2022-12-13T19:04:12.051Z,101303.28
2022-12-13T19:09:09.132Z,101335.13
2022-12-13T19:14:06.319Z,101306.72
2022-12-13T19:19:09.228Z,101328.19
2022-12-13T19:24:10.806Z,101329.03
2022-12-13T19:29:08.260Z,101261.75
2022-12-13T19:34:11.054Z,101293.63
2022-12-13T19:39:11.029Z,101299.59
2022-12-13T19:44:25.700Z,101302.09
2022-12-13T19:49:24.785Z,101214.19
2022-12-13T19:54:26.227Z,101288.06
2022-12-13T19:59:27.977Z,101295.69
2022-12-13T20:04:35.572Z,101274.13
2022-12-13T20:09:36.631Z,101315.41
2022-12-13T20:14:36.047Z,101267.94
2022-12-13T20:19:39.691Z,101228.22
2022-12-13T20:24:37.055Z,101297.69
2022-12-13T20:29:40.630Z,101304.72
2022-12-13T20:34:42.035Z,101330.47
2022-12-13T20:39:41.816Z,101310.69
2022-12-13T20:44:44.476Z,101335.66
2022-12-13T20:49:48.396Z,101254.00
2022-12-13T20:54:46.389Z,101272.00
2022-12-13T20:59:43.837Z,101340.81
2022-12-13T21:04:44.830Z,101241.94
2022-12-13T21:09:44.612Z,101291.88
2022-12-13T21:14:41.873Z,101264.31
2022-12-13T21:19:40.691Z,101328.66
2022-12-13T21:24:41.198Z,101207.44
2022-12-13T21:29:38.258Z,101301.19
2022-12-13T21:34:39.370Z,101259.13
2022-12-13T21:39:36.649Z,101333.03
2022-12-13T21:44:36.500Z,101255.69
2022-12-13T21:50:04.654Z,101342.53
2022-12-13T21:55:37.856Z,101338.16
2022-12-13T22:00:25.480Z,101329.44
2022-12-13T22:05:22.586Z,101292.41
2022-12-13T22:10:19.626Z,101321.56
2022-12-13T22:15:16.762Z,101282.78
2022-12-13T22:20:18.198Z,101323.31
2022-12-13T22:25:15.439Z,101316.38
2022-12-13T22:30:13.419Z,101318.09
2022-12-13T22:35:11.310Z,101300.88
2022-12-13T22:40:10.678Z,101268.19
2022-12-13T22:45:08.484Z,101286.25
2022-12-13T22:50:06.515Z,101244.22
2022-12-13T22:55:04.362Z,101312.28
2022-12-13T23:00:02.450Z,101310.63
2022-12-13T23:04:59.486Z,101328.09
2022-12-13T23:09:56.847Z,101306.69
2022-12-13T23:14:53.745Z,101324.16
2022-12-13T23:19:53.443Z,101289.00
2022-12-13T23:24:51.548Z,101293.41
2022-12-13T23:29:48.978Z,101339.97
2022-12-13T23:34:45.981Z,101275.44
2022-12-13T23:39:43.648Z,101231.59
2022-12-13T23:44:41.603Z,101350.38
2022-12-13T23:49:38.542Z,101339.09
2022-12-13T23:54:35.667Z,101334.69
2022-12-13T23:59:33.441Z,101286.53
